Time;durP1;ratioP1;P1;durP2;ratioP2;P2;SDS_P1;SDS_P2;PMS_P1;PMS_P2;Temp;Humidity;BMP_temperature;BMP_pressure;BME280_temperature;BME280_humidity;BME280_pressure;Samples;Min_cycle;Max_cycle;Signal;HPM_P1;HPM_P2
2022/05/12 00:01:11;;;;;;;1.10;1.08;;;22.30;39.90;;;26.08;26.26;100426.84;5093414;28;20380;-16
2022/05/12 00:03:37;;;;;;;1.17;1.08;;;22.30;40.00;;;26.07;26.30;100417.09;5075555;28;20476;-16
2022/05/12 00:06:03;;;;;;;1.30;1.20;;;22.30;40.00;;;26.11;26.19;100429.25;5093325;28;20054;-16
2022/05/12 00:08:29;;;;;;;1.42;1.20;;;22.30;40.50;;;26.06;26.20;100412.72;5093062;28;20051;-16
2022/05/12 00:10:55;;;;;;;1.83;1.30;;;22.30;40.00;;;26.04;26.17;100407.53;5093145;28;20055;-16
2022/05/12 00:13:21;;;;;;;1.40;1.30;;;22.30;40.00;;;26.05;26.26;100409.19;5074993;28;20044;-16
2022/05/12 00:15:48;;;;;;;1.50;1.40;;;22.30;40.00;;;26.10;26.25;100408.78;5093293;28;20109;-16
2022/05/12 00:18:14;;;;;;;1.20;1.10;;;22.30;40.00;;;26.07;26.33;100406.38;5091145;28;20545;-16
2022/05/12 00:20:41;;;;;;;1.83;1.35;;;22.30;40.10;;;26.04;26.26;100398.63;5092882;28;20522;-17
2022/05/12 00:23:19;;;;;;;1.10;1.00;;;22.30;40.00;;;26.09;26.34;100396.38;5093351;28;20135;-16
2022/05/12 00:25:47;;;;;;;1.48;1.17;;;22.30;40.00;;;26.11;26.37;100393.56;5093287;28;20083;-16
2022/05/12 00:28:18;;;;;;;1.35;1.25;;;22.20;40.00;;;26.09;26.33;100403.56;5093504;28;20047;-16
2022/05/12 00:30:47;;;;;;;1.85;1.58;;;22.30;40.00;;;26.05;26.22;100385.09;5092961;28;20056;-16
2022/05/12 00:33:14;;;;;;;1.27;1.15;;;22.30;40.00;;;26.06;26.19;100375.22;5092674;28;20040;-16
2022/05/12 00:35:42;;;;;;;1.00;0.90;;;22.30;40.00;;;26.05;26.39;100378.91;5093350;28;20465;-16
2022/05/12 00:38:08;;;;;;;1.60;1.13;;;22.30;40.00;;;26.10;26.28;100384.69;5092136;28;20442;-17
2022/05/12 00:40:34;;;;;;;1.23;1.13;;;22.30;40.00;;;26.12;26.41;100385.38;5092592;28;20043;-16
2022/05/12 00:43:32;;;;;;;1.33;1.02;;;22.20;40.00;;;26.12;26.31;100381.84;5092641;28;20044;-16
2022/05/12 00:45:58;;;;;;;1.65;1.05;;;22.30;40.00;;;26.07;26.34;100369.72;5092917;28;20052;-16
2022/05/12 00:48:24;;;;;;;1.25;0.98;;;22.30;40.00;;;26.06;26.21;100376.06;5092491;28;20059;-17
2022/05/12 00:50:50;;;;;;;1.20;1.10;;;22.30;40.00;;;26.10;26.48;100395.41;5092540;28;20504;-16
2022/05/12 00:53:16;;;;;;;1.08;0.90;;;22.30;40.00;;;26.05;26.27;100384.25;5074363;28;20050;-16
2022/05/12 00:55:44;;;;;;;1.38;1.20;;;22.20;40.00;;;26.05;26.21;100389.63;5092747;28;20055;-17
2022/05/12 00:58:17;;;;;;;1.20;1.10;;;22.30;40.00;;;26.01;26.42;100388.19;5092683;28;20521;-16
2022/05/12 01:00:44;;;;;;;0.85;0.80;;;22.30;40.00;;;26.05;26.32;100401.16;5092473;28;20396;-16
2022/05/12 01:03:16;;;;;;;1.20;1.10;;;22.30;40.10;;;26.00;26.42;100390.03;5094099;28;20055;-16
2022/05/12 01:05:42;;;;;;;1.10;0.98;;;22.30;40.10;;;26.07;26.37;100401.03;5061588;28;20052;-16
2022/05/12 01:08:13;;;;;;;1.08;0.98;;;22.30;40.00;;;26.07;26.34;100401.88;5095905;28;20051;-17
2022/05/12 01:10:41;;;;;;;0.95;0.90;;;22.30;40.00;;;26.03;26.23;100396.94;5076407;28;20080;-16
2022/05/12 01:13:07;;;;;;;1.63;1.10;;;22.20;40.00;;;26.03;26.27;100395.09;5077814;28;20097;-16
2022/05/12 01:15:33;;;;;;;1.35;1.08;;;22.30;40.00;;;26.07;26.23;100404.53;5096085;28;20055;-16
2022/05/12 01:18:07;;;;;;;1.50;0.98;;;22.30;40.10;;;26.01;26.39;100399.75;5095404;28;20052;-16
2022/05/12 01:20:33;;;;;;;1.10;0.85;;;22.30;40.10;;;26.09;26.25;100411.59;5095642;28;21032;-16
2022/05/12 01:23:21;;;;;;;1.00;0.90;;;22.30;40.10;;;26.01;26.24;100399.75;5095790;28;20139;-17
2022/05/12 01:25:47;;;;;;;1.10;0.90;;;22.30;40.00;;;26.03;26.42;100400.47;5096241;28;20090;-16
2022/05/12 01:28:13;;;;;;;1.35;1.10;;;22.20;40.00;;;26.02;26.37;100406.78;5095524;28;20055;-17
2022/05/12 01:30:38;;;;;;;1.08;1.00;;;22.30;40.10;;;26.06;26.31;100410.91;5095495;28;20063;-16
2022/05/12 01:33:04;;;;;;;0.90;0.90;;;22.20;40.00;;;26.01;26.15;100404.25;5095973;28;20062;-16
2022/05/12 01:35:32;;;;;;;1.33;1.00;;;22.30;40.10;;;26.01;26.31;100401.56;5077518;28;20040;-16
2022/05/12 01:37:58;;;;;;;1.90;1.30;;;22.20;40.00;;;25.98;26.31;100402.72;5095248;28;20044;-17
2022/05/12 01:40:25;;;;;;;1.35;1.23;;;22.30;40.10;;;26.04;26.31;100412.88;5095266;28;20047;-17
2022/05/12 01:42:54;;;;;;;1.20;1.05;;;22.20;40.00;;;26.03;26.40;100418.38;5077310;28;20048;-16
2022/05/12 01:45:21;;;;;;;1.30;1.10;;;22.20;40.00;;;26.04;26.42;100420.94;5095388;28;20040;-17
2022/05/12 01:47:50;;;;;;;1.25;1.00;;;22.20;40.00;;;26.03;26.48;100421.06;5095186;28;20492;-17
2022/05/12 01:50:17;;;;;;;1.02;0.98;;;22.20;40.00;;;26.02;26.58;100414.00;5095439;28;20040;-16
2022/05/12 01:52:46;;;;;;;0.98;0.80;;;22.20;40.00;;;26.04;26.35;100422.72;5095766;28;20139;-16
2022/05/12 01:55:14;;;;;;;0.98;0.90;;;22.20;40.00;;;26.04;26.36;100418.25;5095275;28;20048;-16
2022/05/12 01:57:43;;;;;;;1.25;1.15;;;22.20;40.00;;;26.05;26.38;100429.78;5095441;28;20056;-18
2022/05/12 02:00:17;;;;;;;1.95;1.10;;;22.20;40.00;;;26.04;26.38;100428.09;5095711;28;20055;-16
2022/05/12 02:02:42;;;;;;;1.08;0.98;;;22.20;40.00;;;26.04;26.41;100428.97;5095179;28;20617;-16
2022/05/12 02:05:10;;;;;;;0.98;0.90;;;22.20;40.10;;;25.97;26.32;100422.44;5095011;28;20043;-16
2022/05/12 02:07:42;;;;;;;0.88;0.80;;;22.20;40.10;;;25.98;26.36;100426.00;5095195;28;20056;-17
2022/05/12 02:10:13;;;;;;;1.38;1.15;;;22.20;40.10;;;25.98;26.35;100440.22;5095357;28;20044;-16
2022/05/12 02:12:39;;;;;;;1.17;1.08;;;22.20;40.10;;;26.05;26.28;100454.75;5094906;28;20395;-16
2022/05/12 02:15:06;;;;;;;1.65;1.00;;;22.20;40.10;;;26.00;26.38;100430.22;5094561;28;20101;-16
2022/05/12 02:17:32;;;;;;;1.65;1.00;;;22.20;40.10;;;26.03;26.36;100451.38;5094431;28;20097;-16
2022/05/12 02:19:59;;;;;;;1.40;1.10;;;22.20;40.10;;;25.98;26.42;100444.75;5095434;28;20048;-16
2022/05/12 02:22:25;;;;;;;1.10;1.00;;;22.20;40.10;;;26.01;26.40;100453.34;5095016;28;20139;-16
2022/05/12 02:24:51;;;;;;;2.38;1.20;;;22.20;40.10;;;26.01;26.59;100463.19;5095305;28;20384;-16
2022/05/12 02:27:17;;;;;;;1.17;1.08;;;22.20;40.10;;;26.02;26.40;100452.34;5094767;28;20411;-16
2022/05/12 02:29:43;;;;;;;1.27;0.98;;;22.20;40.10;;;26.04;26.31;100465.59;5094582;28;20074;-16
2022/05/12 02:32:09;;;;;;;1.05;1.00;;;22.20;40.10;;;26.04;26.52;100490.59;5094592;28;20385;-16
2022/05/12 02:34:35;;;;;;;1.35;1.02;;;22.20;40.10;;;25.99;26.29;100490.13;5094502;28;20059;-16
2022/05/12 02:37:03;;;;;;;1.77;1.00;;;22.20;40.20;;;26.04;26.42;100528.09;5095036;28;20048;-16
2022/05/12 02:39:35;;;;;;;1.40;0.90;;;22.20;40.20;;;25.97;26.45;100520.72;5094423;28;20048;-16
2022/05/12 02:42:07;;;;;;;1.05;0.90;;;22.20;40.20;;;25.98;26.46;100552.72;5094650;28;20467;-16
2022/05/12 02:44:33;;;;;;;2.17;0.90;;;22.20;40.20;;;25.98;26.45;100559.94;5094433;28;20051;-16
2022/05/12 02:46:59;;;;;;;1.30;1.10;;;22.20;40.20;;;26.02;26.43;100575.56;5094342;28;20121;-16
2022/05/12 02:49:25;;;;;;;1.40;1.20;;;22.20;40.20;;;26.03;26.26;100582.63;5094422;28;20052;-16
2022/05/12 02:51:52;;;;;;;1.20;1.10;;;22.20;40.20;;;25.93;26.47;100578.19;5094792;28;20052;-16
2022/05/12 02:54:19;;;;;;;1.25;1.08;;;22.20;40.30;;;25.95;26.36;100603.91;5094383;28;20051;-16
2022/05/12 02:56:45;;;;;;;1.40;1.00;;;22.20;40.30;;;25.97;26.56;100618.00;5094304;28;20040;-16
2022/05/12 02:59:12;;;;;;;1.42;1.00;;;22.20;40.30;;;26.02;26.47;100628.31;5094554;28;20040;-16
2022/05/12 03:01:38;;;;;;;1.63;1.10;;;22.20;40.30;;;25.96;26.38;100632.41;5094058;28;20040;-16
2022/05/12 03:04:04;;;;;;;1.20;1.05;;;22.20;40.40;;;26.00;26.60;100654.41;5094230;28;20376;-16
2022/05/12 03:06:31;;;;;;;1.17;0.98;;;22.20;40.40;;;25.94;26.46;100641.50;5094162;28;20078;-16
2022/05/12 03:08:58;;;;;;;1.10;1.00;;;22.20;40.50;;;26.01;26.43;100677.50;5075875;28;20048;-16
2022/05/12 03:11:24;;;;;;;1.33;1.00;;;22.20;40.50;;;26.00;26.38;100679.34;5093988;28;20056;-16
2022/05/12 03:13:51;;;;;;;0.85;0.85;;;22.20;40.50;;;25.95;26.61;100691.44;5094073;28;20116;-16
2022/05/12 03:16:18;;;;;;;0.80;0.80;;;22.20;40.50;;;25.97;26.60;100689.50;5094107;28;20052;-17
2022/05/12 03:18:47;;;;;;;1.10;1.00;;;22.20;40.50;;;26.01;26.48;100710.53;5093968;28;20079;-16
2022/05/12 03:21:14;;;;;;;2.08;1.08;;;22.20;40.40;;;25.96;26.52;100703.84;5093844;28;20048;-16
2022/05/12 03:23:40;;;;;;;1.77;1.27;;;22.20;40.40;;;25.95;26.63;100705.69;5093773;28;20044;-16
2022/05/12 03:26:07;;;;;;;0.82;0.82;;;22.20;40.50;;;25.98;26.69;100724.19;5092631;28;20048;-16
2022/05/12 03:28:33;;;;;;;1.60;1.00;;;22.20;40.40;;;25.98;26.71;100737.59;5093769;28;20086;-16
2022/05/12 03:30:59;;;;;;;0.90;0.80;;;22.10;40.40;;;25.94;26.63;100730.75;5093733;28;20059;-16
2022/05/12 03:33:25;;;;;;;1.00;0.95;;;22.20;40.50;;;25.93;26.61;100736.22;5093971;28;20075;-16
2022/05/12 03:35:51;;;;;;;0.90;0.73;;;22.20;41.00;;;25.94;26.60;100746.81;5093940;28;20062;-16
2022/05/12 03:38:19;;;;;;;1.75;1.30;;;22.20;40.50;;;25.98;26.74;100761.69;5093527;28;20044;-17
2022/05/12 03:40:45;;;;;;;0.80;0.77;;;22.10;40.40;;;25.97;26.55;100769.84;5093465;28;20044;-16
2022/05/12 03:43:11;;;;;;;1.70;1.00;;;22.20;40.50;;;25.94;26.52;100765.56;5093745;28;20044;-16
2022/05/12 03:45:36;;;;;;;0.98;0.90;;;22.20;40.40;;;25.94;26.41;100783.47;5093678;28;20541;-16
2022/05/12 03:48:04;;;;;;;0.82;0.82;;;22.10;40.40;;;25.97;26.69;100791.28;5093320;28;20125;-17
2022/05/12 03:50:29;;;;;;;1.05;0.93;;;22.20;40.40;;;25.92;26.62;100788.97;5093750;28;20532;-16
2022/05/12 03:52:56;;;;;;;0.90;0.80;;;22.10;40.40;;;25.94;26.62;100796.88;5093672;28;20047;-16
2022/05/12 03:55:26;;;;;;;1.05;0.80;;;22.10;40.40;;;25.92;26.48;100799.69;5075269;28;20048;-16
2022/05/12 03:57:55;;;;;;;1.10;1.00;;;22.10;40.40;;;25.89;26.62;100794.56;5093186;28;20181;-17
2022/05/12 04:00:28;;;;;;;1.48;1.10;;;22.10;40.80;;;25.91;26.59;100805.16;5093112;28;20077;-16
2022/05/12 04:02:54;;;;;;;1.15;0.93;;;22.20;40.40;;;25.89;26.58;100802.59;5075888;28;20556;-16
2022/05/12 04:05:21;;;;;;;1.73;1.00;;;22.20;40.40;;;25.89;26.59;100811.50;5093411;28;20040;-17
2022/05/12 04:07:47;;;;;;;1.05;1.00;;;22.10;40.40;;;25.97;26.67;100834.16;5093042;28;20135;-16
2022/05/12 04:10:14;;;;;;;1.00;0.93;;;22.20;40.40;;;25.92;26.63;100834.50;5057099;28;20059;-16
2022/05/12 04:12:40;;;;;;;2.05;1.05;;;22.20;40.40;;;25.89;26.64;100827.59;5093117;28;20082;-16
2022/05/12 04:15:08;;;;;;;1.10;1.00;;;22.10;40.40;;;25.96;26.58;100853.88;5092939;28;20069;-16
2022/05/12 04:17:35;;;;;;;0.70;0.70;;;22.20;40.40;;;25.94;26.62;100848.59;5074534;28;20447;-16
2022/05/12 04:20:07;;;;;;;1.88;0.88;;;22.20;40.40;;;25.94;26.50;100861.16;5092769;28;20044;-16
2022/05/12 04:22:33;;;;;;;0.98;0.80;;;22.10;40.40;;;25.94;26.58;100863.84;5092970;28;20052;-16
2022/05/12 04:24:59;;;;;;;1.13;1.02;;;22.20;40.40;;;25.91;26.45;100874.81;5093496;28;20366;-16
2022/05/12 04:27:26;;;;;;;1.00;0.85;;;22.20;40.40;;;25.97;26.55;100888.56;5092944;28;20050;-16
2022/05/12 04:29:52;;;;;;;1.65;1.30;;;22.10;40.30;;;25.92;26.46;100893.44;5092789;28;20052;-16
2022/05/12 04:32:18;;;;;;;1.13;0.95;;;22.20;40.40;;;25.91;26.27;100881.03;5093364;28;20381;-16
2022/05/12 04:37:32;;;;;;;1.40;0.90;;;22.20;40.90;;;25.91;26.62;100902.47;5092484;28;20044;-17
2022/05/12 04:40:26;;;;;;;1.00;0.90;;;22.20;40.30;;;25.93;26.49;100902.31;5093021;28;20048;-16
2022/05/12 04:42:54;;;;;;;0.80;0.80;;;22.20;40.90;;;26.01;26.59;100926.69;5092972;28;20043;-16
2022/05/12 04:45:22;;;;;;;1.42;1.20;;;22.20;40.40;;;25.98;26.56;100924.28;5092657;28;20058;-16
2022/05/12 04:47:48;;;;;;;1.38;0.80;;;22.20;40.30;;;26.01;26.42;100924.00;5092173;28;20044;-16
2022/05/12 04:50:21;;;;;;;1.90;1.10;;;22.20;40.30;;;26.00;26.50;100938.38;5093073;28;20043;-16
2022/05/12 04:52:47;;;;;;;0.82;0.82;;;22.20;40.20;;;26.02;26.53;100939.09;5073209;28;20052;-16
2022/05/12 04:55:14;;;;;;;0.70;0.70;;;22.20;40.20;;;26.01;26.52;100949.00;5092551;28;20048;-16
2022/05/12 04:57:43;;;;;;;1.00;0.90;;;22.20;40.30;;;25.97;26.43;100939.47;5092596;28;20414;-16
2022/05/12 05:00:18;;;;;;;1.02;0.90;;;22.30;40.30;;;26.02;26.60;100964.06;5093070;28;20055;-16
2022/05/12 05:02:43;;;;;;;1.20;1.10;;;22.20;40.30;;;25.99;26.38;100961.63;5092543;28;20044;-16
2022/05/12 05:05:10;;;;;;;1.33;1.08;;;22.20;40.30;;;26.01;26.51;100974.91;5092561;28;20063;-16
2022/05/12 05:07:36;;;;;;;1.25;0.90;;;22.20;40.30;;;26.00;26.52;100968.72;5091991;28;20499;-17
2022/05/12 05:10:03;;;;;;;1.15;0.90;;;22.20;40.30;;;26.01;26.61;100977.59;5092299;28;20048;-16
2022/05/12 05:12:29;;;;;;;0.77;0.77;;;22.20;40.20;;;26.03;26.43;100989.91;5092903;28;20060;-16
2022/05/12 05:14:56;;;;;;;1.05;0.93;;;22.20;40.30;;;26.00;26.47;100986.63;5092199;28;20044;-16
2022/05/12 05:17:23;;;;;;;0.90;0.75;;;22.30;40.30;;;26.12;26.45;101009.72;5092318;28;20058;-16
2022/05/12 05:19:51;;;;;;;1.00;0.85;;;22.30;40.20;;;26.08;26.49;101008.28;5092122;28;20044;-16
2022/05/12 05:22:17;;;;;;;0.93;0.73;;;22.30;40.20;;;26.17;26.41;101017.38;5091749;28;20075;-16
2022/05/12 05:24:43;;;;;;;1.80;0.98;;;22.40;40.10;;;26.19;26.45;101015.44;5092025;28;20510;-16
2022/05/12 05:27:09;;;;;;;0.80;0.80;;;22.30;40.10;;;26.20;26.34;101018.00;5092284;28;20048;-16
2022/05/12 05:29:42;;;;;;;0.98;0.80;;;22.40;40.60;;;26.16;26.25;101013.88;5091942;28;20052;-16
2022/05/12 05:32:12;;;;;;;0.80;0.80;;;22.40;40.00;;;26.26;26.31;101021.97;5092289;28;20044;-16
2022/05/12 05:34:38;;;;;;;1.02;0.82;;;22.50;39.90;;;26.30;26.24;101025.28;5092308;28;20044;-16
2022/05/12 05:37:04;;;;;;;1.25;0.90;;;22.60;39.80;;;26.39;26.30;101033.41;5091843;28;20048;-16
2022/05/12 05:39:30;;;;;;;0.90;0.75;;;22.60;39.70;;;26.40;26.20;101027.06;5092096;28;20048;-16
2022/05/12 05:42:09;;;;;;;1.27;0.80;;;22.70;39.60;;;26.49;26.24;101033.50;5091751;28;20096;-16
2022/05/12 05:44:35;;;;;;;0.73;0.73;;;22.70;39.50;;;26.55;25.96;101038.34;5091789;28;20083;-16
2022/05/12 05:47:02;;;;;;;1.38;0.73;;;22.80;39.40;;;26.51;26.07;101031.53;5091633;28;20423;-16
2022/05/12 05:49:31;;;;;;;1.23;0.80;;;22.80;39.40;;;26.61;25.99;101042.34;5092334;28;20127;-16
2022/05/12 05:54:42;;;;;;;2.25;0.80;;;22.90;39.30;;;26.73;25.95;101056.59;5095279;28;20084;-16
2022/05/12 05:57:08;;;;;;;1.10;0.75;;;23.00;39.30;;;26.68;26.06;101054.31;5078043;28;20048;-16
2022/05/12 05:59:34;;;;;;;1.15;1.00;;;23.00;39.30;;;26.71;25.97;101059.41;5094582;28;20050;-16
2022/05/12 06:01:59;;;;;;;1.00;0.90;;;23.00;39.30;;;26.73;25.80;101062.81;5094798;28;20475;-16
2022/05/12 06:04:25;;;;;;;0.75;0.70;;;22.90;39.30;;;26.75;25.77;101068.06;5094912;28;20153;-16
2022/05/12 06:06:51;;;;;;;1.20;0.68;;;23.00;39.40;;;26.78;25.80;101078.50;5094741;28;20044;-16
2022/05/12 06:09:18;;;;;;;0.88;0.88;;;22.90;39.30;;;26.76;26.02;101081.34;5094702;28;20476;-16
2022/05/12 06:11:44;;;;;;;1.58;1.02;;;23.00;39.30;;;26.82;25.89;101095.22;5094731;28;20099;-16
2022/05/12 06:14:11;;;;;;;0.98;0.75;;;22.90;39.20;;;26.79;25.92;101088.28;5094889;28;20044;-16
2022/05/12 06:16:37;;;;;;;2.05;0.90;;;22.90;39.20;;;26.80;25.77;101112.28;5095212;28;20495;-16
2022/05/12 06:19:03;;;;;;;0.70;0.70;;;22.90;39.30;;;26.80;25.63;101122.19;5094524;28;20048;-16
2022/05/12 06:21:29;;;;;;;1.05;0.90;;;22.90;39.30;;;26.79;25.67;101118.63;5094426;28;20044;-16
2022/05/12 06:23:55;;;;;;;2.13;0.70;;;22.90;39.40;;;26.73;25.53;101118.28;5094598;28;20044;-16
2022/05/12 06:26:22;;;;;;;0.88;0.85;;;22.90;39.30;;;26.78;25.77;101122.31;5076477;28;20044;-16
2022/05/12 06:28:48;;;;;;;2.13;0.73;;;22.90;39.40;;;26.79;25.73;101129.38;5094468;28;20086;-17
2022/05/12 06:31:24;;;;;;;0.80;0.80;;;22.90;39.40;;;26.77;25.56;101125.13;5094968;28;20134;-16
2022/05/12 06:33:53;;;;;;;0.80;0.80;;;22.90;39.30;;;26.87;25.70;101135.94;5094893;28;20433;-16
2022/05/12 06:36:19;;;;;;;0.60;0.60;;;23.00;39.20;;;26.92;25.62;101137.25;5094833;28;20048;-16
2022/05/12 06:38:45;;;;;;;1.27;0.80;;;23.10;39.10;;;26.92;25.62;101129.19;5094729;28;20113;-16
2022/05/12 06:41:12;;;;;;;1.20;0.88;;;23.10;39.00;;;27.00;25.52;101152.72;5074685;28;20144;-16
2022/05/12 06:43:38;;;;;;;1.50;1.15;;;23.10;39.00;;;26.96;25.55;101148.56;5094607;28;20051;-16
2022/05/12 06:46:04;;;;;;;0.85;0.70;;;23.10;39.10;;;27.00;25.71;101163.47;5094648;28;20059;-16
2022/05/12 06:48:30;;;;;;;0.75;0.70;;;23.10;39.10;;;26.95;25.61;101166.53;5094304;28;20075;-16
2022/05/12 06:50:55;;;;;;;2.22;0.90;;;23.10;39.10;;;26.95;25.52;101154.94;5094030;28;20496;-16
2022/05/12 06:53:21;;;;;;;1.40;0.70;;;23.10;39.00;;;26.97;25.69;101164.56;5094143;28;20052;-16
2022/05/12 06:55:47;;;;;;;1.45;0.85;;;23.10;39.10;;;26.96;25.51;101159.31;5094373;28;20138;-16
2022/05/12 06:58:17;;;;;;;0.73;0.65;;;23.10;39.10;;;27.01;25.58;101167.00;5094503;28;20048;-16
2022/05/12 07:00:45;;;;;;;1.05;0.75;;;23.10;39.00;;;26.99;25.37;101167.13;5072759;28;20056;-16
2022/05/12 07:03:12;;;;;;;0.80;0.80;;;23.10;39.00;;;27.05;25.42;101177.34;5094056;28;20056;-16
2022/05/12 07:05:40;;;;;;;0.88;0.60;;;23.10;39.00;;;27.09;25.43;101192.19;5094213;28;20052;-16
2022/05/12 07:08:08;;;;;;;1.13;0.70;;;23.10;38.90;;;27.10;25.50;101193.91;5094365;28;20059;-16
2022/05/12 07:10:33;;;;;;;0.70;0.70;;;23.20;38.90;;;27.17;25.55;101194.25;5093827;28;20563;-16
2022/05/12 07:12:59;;;;;;;0.60;0.60;;;23.30;38.90;;;27.18;25.38;101191.44;5093891;28;20048;-16
2022/05/12 07:15:27;;;;;;;0.70;0.70;;;23.30;38.70;;;27.23;25.23;101187.50;5093740;28;20048;-16
2022/05/12 07:17:58;;;;;;;1.38;1.00;;;23.40;38.60;;;27.28;25.35;101199.59;5093766;28;20048;-16
2022/05/12 07:28:41;;;;;;;0.73;0.60;;;23.30;38.60;;;27.26;25.36;101217.63;5075069;28;20487;-16
2022/05/12 07:31:09;;;;;;;0.77;0.73;;;23.40;38.70;;;27.26;25.11;101228.38;5074938;28;20067;-16
2022/05/12 07:33:44;;;;;;;1.00;0.70;;;23.30;38.70;;;27.24;25.33;101229.50;5093374;28;20052;-17
2022/05/12 07:36:20;;;;;;;2.08;0.90;;;23.30;38.70;;;27.22;25.28;101224.25;5093843;28;20052;-16
2022/05/12 07:38:47;;;;;;;1.23;1.00;;;23.30;38.70;;;27.30;25.05;101253.19;5093387;28;20551;-16
2022/05/12 07:41:14;;;;;;;1.15;0.68;;;23.30;38.70;;;27.28;25.17;101249.72;5093356;28;20518;-16
2022/05/12 07:43:42;;;;;;;1.15;0.82;;;23.30;38.70;;;27.29;25.10;101257.69;5093024;28;20051;-16
2022/05/12 07:46:12;;;;;;;0.88;0.80;;;23.30;38.80;;;27.29;25.07;101260.38;5093232;28;20074;-16
2022/05/12 07:48:39;;;;;;;1.08;0.70;;;23.30;38.70;;;27.27;25.17;101254.25;5093287;28;20044;-16
2022/05/12 07:51:05;;;;;;;2.42;0.90;;;23.30;38.70;;;27.33;25.26;101264.53;5074761;28;20583;-16
2022/05/12 07:53:32;;;;;;;0.98;0.90;;;23.40;38.70;;;27.28;25.02;101268.53;5093196;28;20040;-16
2022/05/12 07:55:58;;;;;;;0.70;0.70;;;23.30;38.70;;;27.27;25.07;101262.31;5093119;28;20135;-17
2022/05/12 07:58:24;;;;;;;2.28;0.85;;;23.30;38.80;;;27.23;24.97;101262.69;5092927;28;20075;-17
2022/05/12 08:00:52;;;;;;;0.82;0.65;;;23.30;38.80;;;27.19;25.05;101267.47;5092821;28;20063;-17
2022/05/12 08:03:18;;;;;;;1.25;1.00;;;23.30;38.70;;;27.27;25.25;101273.03;5093020;28;20044;-17
2022/05/12 08:05:44;;;;;;;1.05;0.80;;;23.30;38.80;;;27.20;25.22;101269.19;5092967;28;20059;-17
2022/05/12 08:08:11;;;;;;;0.77;0.60;;;23.30;38.80;;;27.29;25.26;101287.22;5093241;28;20549;-17
2022/05/12 08:10:37;;;;;;;1.27;0.70;;;23.30;38.70;;;27.35;25.14;101292.09;5092999;28;20100;-17
2022/05/12 08:13:04;;;;;;;1.33;0.70;;;23.40;38.50;;;27.33;24.96;101285.13;5074242;28;20094;-17
2022/05/12 08:15:31;;;;;;;0.60;0.60;;;23.40;38.50;;;27.40;25.18;101298.91;5075007;28;20097;-17
2022/05/12 08:17:57;;;;;;;0.70;0.65;;;23.40;38.40;;;27.39;25.01;101297.22;5092771;28;20073;-17
2022/05/12 08:20:24;;;;;;;0.95;0.88;;;23.50;38.50;;;27.41;24.91;101296.09;5074521;28;20044;-17
2022/05/12 08:22:51;;;;;;;0.70;0.70;;;23.50;38.50;;;27.43;25.11;101299.53;5075154;28;20069;-17
2022/05/12 08:25:18;;;;;;;0.85;0.70;;;23.50;38.50;;;27.42;25.09;101294.28;5092869;28;20441;-17
2022/05/12 08:27:45;;;;;;;1.33;0.75;;;23.50;38.40;;;27.39;24.86;101289.16;5074730;28;20104;-17
2022/05/12 08:30:15;;;;;;;0.68;0.60;;;23.50;38.40;;;27.43;24.98;101302.22;5092811;28;20056;-16
2022/05/12 08:32:42;;;;;;;1.08;0.73;;;23.50;38.40;;;27.47;25.01;101309.03;5092800;28;20048;-17
2022/05/12 08:35:08;;;;;;;1.92;0.65;;;23.50;38.40;;;27.48;25.10;101304.50;5092315;28;20046;-17
2022/05/12 08:37:35;;;;;;;0.85;0.60;;;23.50;38.50;;;27.47;24.87;101318.91;5092423;28;20135;-17
2022/05/12 08:40:03;;;;;;;0.98;0.80;;;23.50;38.50;;;27.42;24.99;101321.13;5072450;28;20051;-17
2022/05/12 08:42:56;;;;;;;1.40;0.80;;;23.50;38.40;;;27.41;25.18;101314.06;5092523;28;20044;-17
2022/05/12 08:45:24;;;;;;;0.88;0.70;;;23.40;38.50;;;27.47;24.86;101332.34;5070905;28;20044;-17
2022/05/12 08:47:50;;;;;;;1.50;0.90;;;23.40;38.50;;;27.45;25.10;101320.84;5090311;28;20083;-23
2022/05/12 08:50:31;;;;;;;0.73;0.73;;;23.40;38.50;;;27.42;24.91;101339.94;5072831;28;20056;-22
2022/05/12 08:53:05;;;;;;;0.88;0.63;;;23.40;38.60;;;27.41;25.05;101332.84;5091583;28;20074;-19
2022/05/12 08:55:50;;;;;;;1.27;0.75;;;23.40;38.50;;;27.41;24.80;101324.78;5092060;28;20056;-17
2022/05/12 08:58:33;;;;;;;0.70;0.70;;;23.50;38.50;;;27.41;24.76;101324.78;5092338;28;20483;-17
2022/05/12 09:01:06;;;;;;;0.75;0.55;;;23.50;38.40;;;27.41;24.85;101330.16;5092349;28;20044;-17
2022/05/12 09:04:11;;;;;;;1.23;0.80;;;23.50;38.50;;;27.44;24.96;101325.38;5074101;28;20051;-17
2022/05/12 09:06:59;;;;;;;0.50;0.50;;;23.50;38.50;;;27.44;24.93;101336.13;5071854;28;20059;-17
2022/05/12 09:09:51;;;;;;;0.80;0.70;;;23.40;38.50;;;27.39;24.75;101332.97;5092134;28;20052;-16
2022/05/12 09:12:51;;;;;;;1.23;0.70;;;23.40;38.50;;;27.44;25.18;101338.81;5092739;28;20093;-17
2022/05/12 09:15:38;;;;;;;0.80;0.80;;;23.50;38.50;;;27.42;24.93;101332.72;5092585;28;20040;-17
2022/05/12 09:18:16;;;;;;;0.70;0.70;;;23.40;38.50;;;27.35;25.27;101331.53;5092364;28;20452;-17
2022/05/12 09:20:42;;;;;;;0.93;0.60;;;23.40;38.50;;;27.40;25.23;101337.38;5092343;28;20472;-17
2022/05/12 09:23:08;;;;;;;1.17;0.95;;;23.40;38.50;;;27.41;25.08;101332.84;5091903;28;20040;-16
2022/05/12 09:25:49;;;;;;;0.82;0.70;;;23.40;38.50;;;27.34;25.09;101337.88;5094726;28;20044;-17
2022/05/12 09:28:30;;;;;;;0.77;0.77;;;23.40;38.60;;;27.38;25.12;101344.69;5075489;28;20115;-17
2022/05/12 09:31:03;;;;;;;1.35;0.80;;;23.40;38.60;;;27.39;25.23;101350.94;5095715;28;20054;-17
2022/05/12 09:33:36;;;;;;;0.70;0.60;;;23.40;38.60;;;27.32;24.96;101346.03;5076990;28;20094;-17
2022/05/12 09:36:16;;;;;;;1.15;0.80;;;23.40;38.70;;;27.34;24.96;101353.97;5076567;28;20072;-17
2022/05/12 09:38:45;;;;;;;1.02;0.70;;;23.30;38.70;;;27.34;24.95;101351.28;5095507;28;20052;-16
2022/05/12 09:41:31;;;;;;;1.17;0.73;;;23.30;38.70;;;27.27;25.02;101350.06;5077211;28;20044;-16
2022/05/12 09:43:57;;;;;;;1.48;0.80;;;23.30;38.70;;;27.30;25.10;101336.44;5077507;28;20055;-16
2022/05/12 09:46:29;;;;;;;0.75;0.65;;;23.30;38.80;;;27.29;24.96;101342.75;5095356;28;20055;-17
2022/05/12 09:49:19;;;;;;;1.17;0.80;;;23.30;38.80;;;27.29;25.01;101351.66;5094703;28;20048;-16
2022/05/12 09:51:46;;;;;;;0.95;0.70;;;23.30;38.80;;;27.25;24.91;101346.63;5094556;28;20135;-17
2022/05/12 09:54:27;;;;;;;1.00;0.90;;;23.30;38.80;;;27.16;25.17;101335.69;5076980;28;20040;-16
2022/05/12 09:57:16;;;;;;;2.03;0.80;;;23.30;38.80;;;27.22;25.19;101354.97;5095167;28;20143;-16
2022/05/12 09:59:50;;;;;;;0.80;0.63;;;23.30;38.90;;;27.24;25.15;101353.84;5094484;28;20098;-17
2022/05/12 10:08:26;;;;;;;1.63;0.73;;;23.20;38.80;;;27.15;25.14;101358.13;5093137;28;20051;-16
2022/05/12 10:11:06;;;;;;;0.88;0.60;;;23.20;38.90;;;27.16;25.13;101359.84;5093596;28;20052;-20
2022/05/12 10:13:46;;;;;;;0.85;0.70;;;23.20;38.90;;;27.23;25.22;101375.44;5093550;28;20064;-17
2022/05/12 10:16:17;;;;;;;1.38;0.70;;;23.20;38.90;;;27.19;25.35;101369.47;5093436;28;20135;-17
2022/05/12 10:18:55;;;;;;;1.13;0.70;;;23.20;38.80;;;27.12;25.14;101353.00;5093895;28;20121;-19
2022/05/12 10:21:31;;;;;;;0.73;0.70;;;23.30;38.90;;;27.22;24.99;101371.91;5075972;28;20052;-17
2022/05/12 10:24:13;;;;;;;1.33;0.80;;;23.20;38.80;;;27.20;25.06;101364.94;5075039;28;20412;-17
2022/05/12 10:26:48;;;;;;;1.42;0.73;;;23.20;38.80;;;27.15;25.10;101354.59;5094505;28;20130;-16
2022/05/12 10:29:51;;;;;;;1.33;0.80;;;23.20;38.90;;;27.22;25.34;101377.28;5094457;28;20044;-16
2022/05/12 10:32:43;;;;;;;1.40;0.70;;;23.20;38.80;;;27.23;25.04;101372.75;5094343;28;20052;-17
2022/05/12 10:35:27;;;;;;;0.60;0.60;;;23.20;38.80;;;27.23;24.94;101370.94;5094431;28;20134;-17
2022/05/12 10:38:29;;;;;;;2.08;0.90;;;23.30;38.80;;;27.23;25.32;101370.94;5076412;28;20050;-17
2022/05/12 10:41:06;;;;;;;1.30;0.90;;;23.30;38.80;;;27.23;25.26;101373.63;5093994;28;20052;-17
2022/05/12 10:43:53;;;;;;;0.98;0.80;;;23.30;38.80;;;27.20;25.13;101371.19;5075963;28;20097;-17